createdAt,value
2023-02-19T00:01:08.842Z,94.99
2023-02-19T00:03:38.146Z,92.56
2023-02-19T00:06:06.594Z,93.86
2023-02-19T00:08:34.932Z,94.10
2023-02-19T00:11:03.231Z,92.90
2023-02-19T00:13:32.613Z,93.05
2023-02-19T00:16:00.623Z,93.19
2023-02-19T00:18:28.324Z,92.56
2023-02-19T00:20:56.848Z,92.87
2023-02-19T00:23:24.538Z,94.03
2023-02-19T00:25:52.215Z,95.06
2023-02-19T00:28:19.916Z,93.83
2023-02-19T00:30:49.015Z,93.67
2023-02-19T00:33:16.842Z,93.77
2023-02-19T00:35:44.580Z,93.21
2023-02-19T00:38:12.319Z,94.67
2023-02-19T00:40:40.036Z,94.78
2023-02-19T00:43:07.719Z,93.65
2023-02-19T00:45:36.336Z,94.34
2023-02-19T00:48:05.482Z,93.90
2023-02-19T00:50:33.114Z,94.25
2023-02-19T00:53:00.799Z,91.92
2023-02-19T00:55:28.473Z,91.78
2023-02-19T00:57:56.117Z,91.75
2023-02-19T01:00:23.772Z,92.61
2023-02-19T01:02:51.375Z,92.74
2023-02-19T01:05:20.643Z,94.51
2023-02-19T01:07:48.351Z,92.19
2023-02-19T01:10:16.008Z,93.46
2023-02-19T01:12:46.734Z,94.17
2023-02-19T01:15:14.339Z,93.34
2023-02-19T01:17:42.041Z,92.56
2023-02-19T01:20:10.209Z,93.76
2023-02-19T01:22:39.247Z,93.99
2023-02-19T01:25:07.707Z,93.92
2023-02-19T01:27:35.369Z,93.94
2023-02-19T01:30:03.115Z,93.05
2023-02-19T01:32:30.797Z,94.54
2023-02-19T01:34:58.397Z,93.66
2023-02-19T01:37:26.123Z,94.19
2023-02-19T01:39:55.098Z,93.08
2023-02-19T01:42:22.697Z,93.88
2023-02-19T01:45:08.901Z,92.84
2023-02-19T01:47:36.596Z,93.74
2023-02-19T01:50:04.392Z,93.32
2023-02-19T01:52:33.287Z,93.41
2023-02-19T01:55:03.589Z,92.80
2023-02-19T01:57:34.351Z,92.98
2023-02-19T02:00:05.304Z,92.76
2023-02-19T02:02:33.088Z,92.28
2023-02-19T02:05:01.003Z,92.51
2023-02-19T02:07:46.033Z,92.19
2023-02-19T02:10:24.056Z,92.65
2023-02-19T02:12:52.546Z,92.87
2023-02-19T02:15:20.676Z,93.49
2023-02-19T02:17:52.170Z,93.44
2023-02-19T02:20:28.966Z,92.76
2023-02-19T02:23:01.380Z,92.69
2023-02-19T02:25:49.522Z,92.56
2023-02-19T02:28:27.817Z,91.24
2023-02-19T02:30:57.566Z,91.95
2023-02-19T02:33:32.737Z,92.19
2023-02-19T02:36:03.350Z,92.74
2023-02-19T02:38:33.106Z,94.05
2023-02-19T02:41:01.145Z,92.40
2023-02-19T02:43:28.782Z,92.37
2023-02-19T02:45:58.133Z,93.23
2023-02-19T02:48:35.272Z,93.36
2023-02-19T02:51:07.309Z,93.58
2023-02-19T02:53:55.922Z,94.52
2023-02-19T02:56:25.277Z,93.14
2023-02-19T02:58:53.861Z,93.73
2023-02-19T03:01:42.654Z,93.39
2023-02-19T03:04:13.183Z,91.96
2023-02-19T03:06:41.601Z,92.05
2023-02-19T03:09:12.314Z,91.33
2023-02-19T03:11:59.069Z,91.98
2023-02-19T03:14:46.220Z,92.26
2023-02-19T03:17:35.419Z,91.92
2023-02-19T03:20:06.374Z,92.25
2023-02-19T03:22:35.640Z,92.12
2023-02-19T03:25:23.767Z,91.30
2023-02-19T03:27:52.327Z,90.89
2023-02-19T03:30:21.852Z,91.18
2023-02-19T03:32:54.773Z,92.86
2023-02-19T03:35:23.605Z,92.38
2023-02-19T03:37:53.932Z,90.05
2023-02-19T03:40:22.835Z,91.70
2023-02-19T03:42:57.099Z,90.88
2023-02-19T03:45:37.783Z,92.05
2023-02-19T03:48:17.024Z,91.31
2023-02-19T03:50:47.103Z,91.80
2023-02-19T03:53:19.490Z,92.83
2023-02-19T03:55:51.765Z,90.74
2023-02-19T03:58:25.747Z,91.11
2023-02-19T04:00:56.266Z,90.62
2023-02-19T04:03:29.660Z,91.22
2023-02-19T04:05:59.855Z,90.12
2023-02-19T04:08:28.207Z,89.86
2023-02-19T04:10:56.496Z,90.57
2023-02-19T04:13:26.602Z,87.55
2023-02-19T04:15:56.223Z,89.53
2023-02-19T04:18:26.824Z,89.97
2023-02-19T04:20:54.642Z,89.50
2023-02-19T04:23:24.426Z,88.75
2023-02-19T04:25:54.571Z,88.14
2023-02-19T04:28:22.820Z,89.34
2023-02-19T04:30:50.584Z,88.44
2023-02-19T04:33:18.326Z,89.25
2023-02-19T04:35:47.358Z,90.14
2023-02-19T04:38:15.121Z,90.36
2023-02-19T04:40:42.764Z,88.29
2023-02-19T04:43:10.491Z,90.08
2023-02-19T04:45:38.475Z,91.04
2023-02-19T04:48:06.373Z,90.33
2023-02-19T04:50:34.068Z,90.83
2023-02-19T04:53:03.171Z,91.05
2023-02-19T04:55:30.848Z,91.86
2023-02-19T04:57:58.573Z,91.47
2023-02-19T05:00:26.283Z,92.08
2023-02-19T05:02:53.938Z,90.49
2023-02-19T05:05:21.570Z,91.57
2023-02-19T05:07:49.406Z,88.79
2023-02-19T05:10:18.672Z,90.16
2023-02-19T05:12:46.281Z,89.96
2023-02-19T05:15:13.969Z,90.05
2023-02-19T05:17:41.634Z,90.65
2023-02-19T05:20:10.117Z,89.28
2023-02-19T05:22:37.773Z,90.48
2023-02-19T05:25:05.924Z,90.51
2023-02-19T05:27:34.919Z,89.58
2023-02-19T05:30:02.593Z,90.31
2023-02-19T05:32:30.326Z,90.22
2023-02-19T05:34:58.028Z,89.99
2023-02-19T05:37:26.068Z,90.12
2023-02-19T05:39:53.741Z,89.93
2023-02-19T05:42:21.441Z,90.29
2023-02-19T05:44:50.901Z,89.50
2023-02-19T05:47:18.600Z,89.19
2023-02-19T05:49:46.296Z,90.54
2023-02-19T05:52:14.056Z,90.34
2023-02-19T05:54:41.708Z,91.03
2023-02-19T05:57:09.317Z,90.38
2023-02-19T05:59:37.003Z,90.53
2023-02-19T06:02:06.024Z,90.18
2023-02-19T06:04:33.715Z,90.63
2023-02-19T06:07:01.540Z,90.57
2023-02-19T06:09:29.336Z,90.28
2023-02-19T06:11:57.167Z,90.65
2023-02-19T06:14:24.820Z,90.90
2023-02-19T06:16:52.421Z,90.47
2023-02-19T06:19:21.488Z,91.16
2023-02-19T06:21:51.185Z,90.66
2023-02-19T06:24:18.890Z,90.27
2023-02-19T06:26:46.625Z,91.01
2023-02-19T06:29:14.273Z,89.50
2023-02-19T06:31:42.125Z,89.80
2023-02-19T06:34:09.791Z,89.47
2023-02-19T06:36:38.911Z,89.73
2023-02-19T06:39:06.981Z,89.98
2023-02-19T06:41:34.828Z,90.35
2023-02-19T06:44:02.752Z,89.87
2023-02-19T06:46:30.414Z,90.24
2023-02-19T06:48:58.187Z,89.38
2023-02-19T06:51:27.244Z,90.10
2023-02-19T06:53:56.630Z,89.50
2023-02-19T06:56:25.754Z,89.83
2023-02-19T06:58:53.433Z,88.75
2023-02-19T07:01:21.138Z,89.23
2023-02-19T07:03:49.031Z,90.20
2023-02-19T07:06:16.842Z,90.91
2023-02-19T07:08:44.500Z,89.11
2023-02-19T07:11:13.515Z,89.45
2023-02-19T07:13:41.176Z,89.80
2023-02-19T07:16:11.141Z,90.33
2023-02-19T07:18:39.266Z,89.97
2023-02-19T07:21:08.337Z,89.98
2023-02-19T07:23:36.540Z,89.54
2023-02-19T07:26:04.340Z,90.28
2023-02-19T07:28:33.420Z,89.34
2023-02-19T07:31:02.615Z,89.34
2023-02-19T07:33:30.353Z,89.35
2023-02-19T07:35:58.004Z,88.31
2023-02-19T07:38:26.357Z,87.53
2023-02-19T07:40:54.300Z,89.27
2023-02-19T07:43:22.631Z,88.69
2023-02-19T07:45:51.852Z,88.24
2023-02-19T07:48:19.892Z,88.32
2023-02-19T07:50:52.360Z,87.21
2023-02-19T07:53:20.129Z,85.59
2023-02-19T07:55:47.751Z,87.28
2023-02-19T07:58:15.522Z,87.44
2023-02-19T08:00:43.505Z,86.57
2023-02-19T08:03:11.792Z,86.50
2023-02-19T08:05:40.456Z,86.67
2023-02-19T08:08:08.882Z,85.84
2023-02-19T08:10:53.540Z,86.30
2023-02-19T08:13:22.701Z,84.58
2023-02-19T08:15:51.560Z,85.16
2023-02-19T08:18:21.788Z,84.89
2023-02-19T08:20:49.488Z,86.26
2023-02-19T08:23:17.679Z,83.39
2023-02-19T08:25:45.421Z,84.84
2023-02-19T08:28:13.203Z,83.62
2023-02-19T08:30:42.370Z,86.03
2023-02-19T08:33:10.274Z,85.53
2023-02-19T08:35:39.597Z,84.15
2023-02-19T08:38:08.337Z,83.36
2023-02-19T08:40:36.086Z,83.13
2023-02-19T08:43:04.637Z,83.71
2023-02-19T08:45:32.686Z,81.31
2023-02-19T08:48:00.804Z,82.48
2023-02-19T08:50:28.521Z,82.29
2023-02-19T08:52:57.707Z,81.33
2023-02-19T08:55:27.764Z,80.21
2023-02-19T08:57:55.543Z,79.50
2023-02-19T09:00:23.444Z,79.45
2023-02-19T09:02:51.202Z,79.86
2023-02-19T09:05:19.021Z,79.71
2023-02-19T09:07:46.703Z,80.67
2023-02-19T09:10:15.791Z,80.34
2023-02-19T09:12:43.452Z,78.61
2023-02-19T09:15:11.164Z,81.67
2023-02-19T09:17:38.875Z,80.89
2023-02-19T09:20:06.843Z,79.71
2023-02-19T09:22:35.098Z,79.36
2023-02-19T09:25:02.761Z,79.37
2023-02-19T09:27:33.318Z,81.02
2023-02-19T09:30:03.132Z,81.27
2023-02-19T09:32:31.480Z,79.36
2023-02-19T09:34:59.175Z,77.63
2023-02-19T09:37:27.774Z,78.41
2023-02-19T09:39:55.637Z,76.86
2023-02-19T09:42:24.711Z,77.38
2023-02-19T09:44:56.418Z,76.60
2023-02-19T09:47:25.410Z,78.48
2023-02-19T09:49:54.320Z,77.96
2023-02-19T09:52:28.572Z,78.51
2023-02-19T09:54:59.266Z,77.88
2023-02-19T09:57:27.530Z,79.72
2023-02-19T10:00:00.348Z,77.68
2023-02-19T10:02:30.831Z,77.48
2023-02-19T10:04:58.774Z,78.39
2023-02-19T10:07:28.008Z,78.42
2023-02-19T10:09:58.532Z,76.64
2023-02-19T10:12:27.789Z,78.99
2023-02-19T10:15:01.354Z,77.82
2023-02-19T10:17:31.535Z,75.54
2023-02-19T10:19:59.321Z,77.30
2023-02-19T10:22:27.105Z,78.13
2023-02-19T10:24:56.671Z,78.61
2023-02-19T10:27:27.227Z,76.14
2023-02-19T10:29:54.997Z,76.86
2023-02-19T10:32:25.042Z,77.24
2023-02-19T10:35:07.629Z,75.71
2023-02-19T10:37:36.941Z,76.39
2023-02-19T10:40:04.651Z,77.20
2023-02-19T10:42:32.619Z,76.35
2023-02-19T10:45:02.801Z,75.55
2023-02-19T10:47:33.524Z,76.76
2023-02-19T10:50:04.406Z,74.39
2023-02-19T10:52:34.401Z,75.46
2023-02-19T10:55:16.399Z,74.55
2023-02-19T10:57:44.093Z,76.17
2023-02-19T11:00:22.845Z,75.97
2023-02-19T11:03:11.971Z,75.65
2023-02-19T11:05:42.592Z,75.11
2023-02-19T11:08:18.960Z,76.03
2023-02-19T11:10:49.477Z,74.48
2023-02-19T11:13:18.684Z,74.97
2023-02-19T11:15:52.667Z,74.85
2023-02-19T11:18:23.655Z,75.30
2023-02-19T11:20:54.363Z,75.11
2023-02-19T11:23:25.139Z,75.90
2023-02-19T11:25:54.097Z,74.60
2023-02-19T11:28:27.981Z,75.21
2023-02-19T11:30:55.604Z,73.39
2023-02-19T11:33:28.399Z,76.09
2023-02-19T11:36:00.621Z,74.71
2023-02-19T11:38:28.390Z,73.05
2023-02-19T11:40:59.378Z,73.78
2023-02-19T11:43:48.010Z,76.35
2023-02-19T11:46:18.977Z,75.18
2023-02-19T11:49:00.352Z,75.08
2023-02-19T11:51:49.350Z,73.86
2023-02-19T11:54:33.476Z,73.97
2023-02-19T11:57:09.511Z,72.92
2023-02-19T11:59:40.708Z,72.24
2023-02-19T12:02:19.927Z,72.26
2023-02-19T12:05:13.792Z,73.89
2023-02-19T12:07:53.163Z,75.36
2023-02-19T12:10:22.908Z,74.04
2023-02-19T12:12:57.322Z,75.88
2023-02-19T12:15:30.576Z,75.22
2023-02-19T12:18:19.067Z,73.41
2023-02-19T12:20:52.756Z,72.44
2023-02-19T12:23:33.953Z,73.66
2023-02-19T12:26:06.664Z,70.13
2023-02-19T12:28:49.846Z,72.15
2023-02-19T12:31:28.114Z,72.86
2023-02-19T12:34:13.731Z,71.46
2023-02-19T12:36:47.593Z,72.68
2023-02-19T12:39:19.047Z,72.18
2023-02-19T12:41:51.288Z,73.29
2023-02-19T12:44:20.765Z,71.70
2023-02-19T12:46:50.418Z,71.72
2023-02-19T12:49:23.044Z,71.47
2023-02-19T12:51:57.564Z,71.04
2023-02-19T12:54:27.572Z,70.17
2023-02-19T12:56:58.828Z,70.54
2023-02-19T12:59:31.197Z,69.87
2023-02-19T13:02:01.816Z,71.18
2023-02-19T13:04:35.697Z,69.84
2023-02-19T13:07:07.719Z,67.72
2023-02-19T13:09:37.833Z,69.59
2023-02-19T13:12:08.712Z,68.51
2023-02-19T13:14:38.898Z,70.20
2023-02-19T13:17:11.922Z,71.69
2023-02-19T13:19:39.897Z,70.04
2023-02-19T13:22:35.612Z,69.28
2023-02-19T13:25:04.264Z,72.08
2023-02-19T13:27:37.372Z,71.80
2023-02-19T13:30:11.474Z,69.98
2023-02-19T13:32:50.448Z,71.72
2023-02-19T13:35:25.245Z,69.24
2023-02-19T13:37:55.564Z,70.32
2023-02-19T13:40:27.941Z,73.08
2023-02-19T13:42:56.913Z,72.43
2023-02-19T13:45:29.247Z,72.20
2023-02-19T13:48:01.430Z,72.60
2023-02-19T13:50:30.041Z,72.93
2023-02-19T13:52:59.267Z,70.38
2023-02-19T13:55:46.795Z,69.61
2023-02-19T13:58:44.641Z,68.65
2023-02-19T14:01:14.260Z,71.31
2023-02-19T14:03:47.868Z,70.72
2023-02-19T14:06:15.797Z,71.58
2023-02-19T14:08:52.649Z,71.54
2023-02-19T14:11:40.529Z,71.15
2023-02-19T14:14:28.042Z,71.17
2023-02-19T14:17:07.598Z,72.57
2023-02-19T14:19:46.284Z,70.67
2023-02-19T14:22:32.396Z,71.59
2023-02-19T14:25:01.632Z,71.28
2023-02-19T14:27:29.267Z,70.97
2023-02-19T14:29:57.117Z,71.78
2023-02-19T14:32:25.361Z,74.20
2023-02-19T14:34:53.799Z,73.80
2023-02-19T14:37:22.951Z,74.04
2023-02-19T14:39:52.190Z,75.24
2023-02-19T14:42:24.574Z,73.79
2023-02-19T14:44:53.782Z,72.93
2023-02-19T14:47:25.341Z,74.71
2023-02-19T14:49:55.169Z,75.58
2023-02-19T14:52:25.650Z,74.99
2023-02-19T14:54:55.433Z,74.10
2023-02-19T14:57:26.751Z,73.81
2023-02-19T14:59:56.099Z,74.93
2023-02-19T15:02:25.984Z,74.92
2023-02-19T15:04:53.810Z,75.40
2023-02-19T15:07:23.466Z,74.89
2023-02-19T15:09:52.433Z,74.94
2023-02-19T15:12:22.923Z,73.94
2023-02-19T15:14:54.296Z,76.12
2023-02-19T15:17:28.340Z,78.25
2023-02-19T15:19:56.573Z,78.23
2023-02-19T15:22:26.092Z,76.62
2023-02-19T15:24:53.849Z,75.63
2023-02-19T15:27:22.687Z,75.65
2023-02-19T15:29:53.367Z,76.03
2023-02-19T15:32:23.518Z,77.63
2023-02-19T15:34:55.625Z,74.65
2023-02-19T15:37:24.340Z,76.90
2023-02-19T15:39:53.166Z,75.24
2023-02-19T15:42:22.310Z,76.53
2023-02-19T15:44:52.448Z,76.26
2023-02-19T15:47:26.953Z,76.67
2023-02-19T15:49:58.846Z,77.97
2023-02-19T15:52:32.843Z,77.67
2023-02-19T15:55:04.030Z,77.99
2023-02-19T15:57:33.586Z,77.82
2023-02-19T16:00:04.117Z,78.97
2023-02-19T16:02:35.785Z,78.35
2023-02-19T16:05:12.242Z,77.92
2023-02-19T16:07:39.995Z,78.18
2023-02-19T16:10:17.361Z,79.36
2023-02-19T16:12:45.192Z,79.15
2023-02-19T16:15:13.677Z,79.52
2023-02-19T16:17:45.455Z,80.44
2023-02-19T16:20:18.628Z,80.37
2023-02-19T16:22:46.505Z,80.71
2023-02-19T16:25:24.876Z,80.53
2023-02-19T16:27:52.720Z,81.20
2023-02-19T16:30:25.872Z,81.09
2023-02-19T16:33:08.429Z,81.02
2023-02-19T16:35:38.303Z,81.27
2023-02-19T16:38:13.709Z,81.53
2023-02-19T16:41:02.318Z,81.43
2023-02-19T16:43:32.059Z,81.77
2023-02-19T16:46:00.946Z,80.93
2023-02-19T16:48:29.075Z,81.27
2023-02-19T16:50:59.549Z,81.87
2023-02-19T16:53:28.841Z,82.88
2023-02-19T16:55:56.711Z,82.14
2023-02-19T16:58:24.385Z,83.19
2023-02-19T17:00:52.091Z,83.12
2023-02-19T17:03:21.077Z,82.28
2023-02-19T17:05:48.859Z,82.57
2023-02-19T17:08:31.164Z,82.64
2023-02-19T17:10:59.217Z,83.44
2023-02-19T17:13:26.915Z,83.09
2023-02-19T17:15:56.707Z,83.19
2023-02-19T17:18:24.996Z,83.26
2023-02-19T17:20:56.048Z,84.02
2023-02-19T17:23:24.576Z,84.05
2023-02-19T17:25:53.692Z,83.72
2023-02-19T17:28:21.401Z,83.70
2023-02-19T17:30:49.097Z,84.48
2023-02-19T17:33:16.898Z,84.88
2023-02-19T17:35:44.956Z,84.44
2023-02-19T17:38:13.222Z,84.47
2023-02-19T17:40:40.928Z,84.19
2023-02-19T17:43:10.060Z,84.48
2023-02-19T17:45:37.713Z,84.36
2023-02-19T17:48:06.658Z,84.72
2023-02-19T17:50:34.309Z,85.06
2023-02-19T17:53:01.905Z,84.71
2023-02-19T17:55:29.579Z,84.83
2023-02-19T17:57:57.318Z,85.43
2023-02-19T18:00:31.653Z,85.94
2023-02-19T18:02:59.566Z,85.96
2023-02-19T18:05:27.224Z,85.27
2023-02-19T18:07:54.923Z,85.18
2023-02-19T18:10:23.439Z,85.16
2023-02-19T18:12:51.454Z,84.90
2023-02-19T18:15:19.988Z,84.42
2023-02-19T18:17:49.103Z,85.33
2023-02-19T18:20:17.411Z,85.15
2023-02-19T18:22:45.092Z,84.96
2023-02-19T18:25:12.848Z,84.71
2023-02-19T18:27:40.569Z,85.10
2023-02-19T18:30:08.904Z,85.33
2023-02-19T18:32:37.116Z,85.50
2023-02-19T18:35:06.547Z,86.11
2023-02-19T18:37:34.251Z,85.98
2023-02-19T18:40:02.552Z,85.93
2023-02-19T18:42:30.180Z,85.44
2023-02-19T18:44:57.897Z,85.86
2023-02-19T18:47:26.316Z,85.29
2023-02-19T18:49:54.971Z,85.20
2023-02-19T18:52:25.003Z,85.09
2023-02-19T18:54:53.531Z,85.31
2023-02-19T18:57:21.935Z,85.38
2023-02-19T18:59:49.762Z,85.54
2023-02-19T19:02:17.535Z,85.44
2023-02-19T19:04:49.163Z,85.64
2023-02-19T19:07:16.942Z,85.98
2023-02-19T19:09:46.317Z,86.28
2023-02-19T19:12:14.607Z,86.79
2023-02-19T19:14:42.317Z,86.63
2023-02-19T19:17:10.148Z,86.23
2023-02-19T19:19:37.824Z,86.57
2023-02-19T19:22:05.489Z,86.59
2023-02-19T19:24:33.186Z,87.52
2023-02-19T19:27:02.176Z,87.11
2023-02-19T19:29:29.950Z,87.51
2023-02-19T19:31:57.647Z,87.60
2023-02-19T19:34:25.342Z,87.83
2023-02-19T19:36:53.054Z,87.81
2023-02-19T19:39:20.780Z,87.55
2023-02-19T19:41:53.928Z,87.72
2023-02-19T19:44:23.304Z,87.74
2023-02-19T19:46:51.294Z,87.63
2023-02-19T19:49:19.502Z,88.05
2023-02-19T19:51:47.538Z,87.79
2023-02-19T19:54:15.506Z,88.14
2023-02-19T19:56:47.121Z,88.49
2023-02-19T19:59:15.695Z,88.46
2023-02-19T20:01:50.702Z,88.65
2023-02-19T20:04:18.675Z,88.87
2023-02-19T20:06:46.388Z,88.92
2023-02-19T20:09:14.331Z,89.25
2023-02-19T20:11:45.696Z,89.59
2023-02-19T20:14:13.533Z,89.33
2023-02-19T20:16:43.194Z,89.93
2023-02-19T20:19:13.424Z,89.65
2023-02-19T20:21:41.082Z,89.62
2023-02-19T20:24:08.924Z,89.91
2023-02-19T20:26:36.571Z,89.69
2023-02-19T20:29:06.133Z,89.87
2023-02-19T20:31:33.948Z,90.19
2023-02-19T20:34:01.858Z,90.10
2023-02-19T20:36:32.327Z,90.46
2023-02-19T20:39:00.098Z,90.27
2023-02-19T20:41:27.769Z,89.93
2023-02-19T20:43:55.452Z,89.66
2023-02-19T20:46:23.200Z,89.94
2023-02-19T20:48:51.926Z,89.81
2023-02-19T20:51:19.749Z,89.82
2023-02-19T20:53:48.850Z,89.58
2023-02-19T20:56:16.561Z,89.53
2023-02-19T20:58:44.281Z,89.93
2023-02-19T21:01:12.766Z,90.22
2023-02-19T21:03:40.659Z,90.36
2023-02-19T21:06:08.385Z,90.33
2023-02-19T21:08:36.503Z,90.50
2023-02-19T21:11:05.775Z,91.04
2023-02-19T21:13:35.100Z,91.07
2023-02-19T21:16:02.810Z,90.66
2023-02-19T21:18:30.476Z,90.50
2023-02-19T21:20:58.148Z,91.00
2023-02-19T21:23:25.873Z,90.59
2023-02-19T21:25:54.625Z,90.48
2023-02-19T21:28:23.836Z,90.77
2023-02-19T21:30:51.629Z,90.35
2023-02-19T21:33:19.612Z,90.90
2023-02-19T21:35:47.227Z,90.79
2023-02-19T21:38:14.949Z,91.63
2023-02-19T21:40:42.610Z,91.53
2023-02-19T21:43:10.292Z,91.89
2023-02-19T21:45:39.503Z,91.38
2023-02-19T21:48:08.403Z,91.91
2023-02-19T21:50:36.050Z,92.04
2023-02-19T21:53:05.523Z,91.68
2023-02-19T21:55:33.204Z,91.33
2023-02-19T21:58:00.950Z,91.57
2023-02-19T22:00:28.688Z,92.02
2023-02-19T22:02:58.148Z,91.94
2023-02-19T22:05:25.875Z,92.08
2023-02-19T22:07:53.987Z,92.14
2023-02-19T22:10:22.880Z,91.97
2023-02-19T22:12:50.808Z,92.54
2023-02-19T22:15:18.600Z,91.69
2023-02-19T22:17:46.757Z,92.42
2023-02-19T22:20:17.238Z,92.30
2023-02-19T22:22:44.949Z,92.65
2023-02-19T22:25:12.552Z,92.78
2023-02-19T22:27:40.148Z,92.38
2023-02-19T22:30:08.388Z,93.69
2023-02-19T22:32:36.242Z,93.17
2023-02-19T22:35:04.059Z,93.28
2023-02-19T22:37:33.156Z,93.13
2023-02-19T22:40:00.862Z,93.30
2023-02-19T22:42:29.383Z,93.17
2023-02-19T22:44:57.206Z,94.29
2023-02-19T22:47:24.981Z,93.96
2023-02-19T22:49:52.687Z,93.82
2023-02-19T22:52:20.410Z,93.90
2023-02-19T22:54:49.738Z,93.81
2023-02-19T22:57:17.432Z,94.11
2023-02-19T22:59:45.052Z,94.61
2023-02-19T23:02:12.808Z,94.51
2023-02-19T23:04:40.540Z,94.14
2023-02-19T23:07:08.472Z,94.03
2023-02-19T23:09:36.453Z,94.32
2023-02-19T23:12:07.122Z,94.52
2023-02-19T23:14:34.830Z,94.11
2023-02-19T23:17:02.781Z,93.03
2023-02-19T23:19:30.511Z,92.91
2023-02-19T23:21:58.588Z,93.53
2023-02-19T23:24:26.282Z,93.11
2023-02-19T23:26:54.389Z,93.12
2023-02-19T23:29:25.340Z,92.89
2023-02-19T23:31:53.419Z,93.03
2023-02-19T23:34:21.353Z,93.41
2023-02-19T23:36:50.261Z,92.80
2023-02-19T23:39:19.372Z,92.69
2023-02-19T23:41:47.400Z,92.80
2023-02-19T23:44:15.080Z,93.19
2023-02-19T23:46:44.595Z,93.08
2023-02-19T23:49:12.815Z,93.52
2023-02-19T23:51:40.604Z,93.02
2023-02-19T23:54:08.574Z,93.19
2023-02-19T23:56:36.273Z,93.18
2023-02-19T23:59:04.031Z,92.89
